createdAt,value
2022-09-28T00:00:23.820Z,44.58
2022-09-28T00:01:26.160Z,44.60
2022-09-28T00:02:28.744Z,44.35
2022-09-28T00:03:30.326Z,44.35
2022-09-28T00:04:33.497Z,44.65
2022-09-28T00:05:35.505Z,44.52
2022-09-28T00:06:37.588Z,44.59
2022-09-28T00:07:39.147Z,44.33
2022-09-28T00:08:40.891Z,44.42
2022-09-28T00:09:43.207Z,44.52
2022-09-28T00:10:45.713Z,44.65
2022-09-28T00:11:47.528Z,44.52
2022-09-28T00:12:50.332Z,44.60
2022-09-28T00:13:53.415Z,44.65
2022-09-28T00:14:55.694Z,44.80
2022-09-28T00:16:04.949Z,44.57
2022-09-28T00:17:07.239Z,44.58
2022-09-28T00:18:08.756Z,44.53
2022-09-28T00:19:12.545Z,44.36
2022-09-28T00:20:14.428Z,44.51
2022-09-28T00:21:19.221Z,44.48
2022-09-28T00:22:20.756Z,44.36
2022-09-28T00:23:22.337Z,44.58
2022-09-28T00:24:27.469Z,44.40
2022-09-28T00:25:29.868Z,44.57
2022-09-28T00:26:33.210Z,44.45
2022-09-28T00:27:34.747Z,44.54
2022-09-28T00:28:37.680Z,44.58
2022-09-28T00:29:39.263Z,44.63
2022-09-28T00:30:40.785Z,44.56
2022-09-28T00:31:42.432Z,44.44
2022-09-28T00:32:44.002Z,44.78
2022-09-28T00:33:45.683Z,44.56
2022-09-28T00:34:48.824Z,44.58
2022-09-28T00:35:59.578Z,44.65
2022-09-28T00:37:02.675Z,44.76
2022-09-28T00:38:04.228Z,44.67
2022-09-28T00:39:07.740Z,44.52
2022-09-28T00:40:09.592Z,44.66
2022-09-28T00:41:11.557Z,44.44
2022-09-28T00:42:25.244Z,44.69
2022-09-28T00:43:26.979Z,44.44
2022-09-28T00:45:00.948Z,44.60
2022-09-28T00:46:06.511Z,44.59
2022-09-28T00:47:13.952Z,44.79
2022-09-28T00:48:15.482Z,44.76
2022-09-28T00:49:20.464Z,44.74
2022-09-28T00:50:29.056Z,44.74
2022-09-28T00:51:31.949Z,44.48
2022-09-28T00:52:50.893Z,44.62
2022-09-28T00:53:56.127Z,44.50
2022-09-28T00:55:02.075Z,44.46
2022-09-28T00:56:17.465Z,44.58
2022-09-28T00:57:21.140Z,44.59
2022-09-28T00:58:30.019Z,44.54
2022-09-28T00:59:33.504Z,44.51
2022-09-28T01:00:35.300Z,44.66
2022-09-28T01:01:37.545Z,44.73
2022-09-28T01:02:39.435Z,44.49
2022-09-28T01:03:45.255Z,44.57
2022-09-28T01:04:47.376Z,44.74
2022-09-28T01:05:50.776Z,44.72
2022-09-28T01:06:52.437Z,44.81
2022-09-28T01:07:56.303Z,44.63
2022-09-28T01:09:00.453Z,44.65
2022-09-28T01:10:02.723Z,44.79
2022-09-28T01:11:04.739Z,44.71
2022-09-28T01:12:07.367Z,44.72
2022-09-28T01:13:09.963Z,44.45
2022-09-28T01:14:15.219Z,44.62
2022-09-28T01:15:16.908Z,44.55
2022-09-28T01:16:35.337Z,44.77
2022-09-28T01:17:58.168Z,44.68
2022-09-28T01:19:24.561Z,44.53
2022-09-28T01:20:44.161Z,44.45
2022-09-28T01:21:54.010Z,44.51
2022-09-28T01:23:29.068Z,44.67
2022-09-28T01:24:36.677Z,44.58
2022-09-28T01:25:50.973Z,44.61
2022-09-28T01:27:17.735Z,44.71
2022-09-28T01:28:23.621Z,44.83
2022-09-28T01:29:55.450Z,44.76
2022-09-28T01:31:12.628Z,44.79
2022-09-28T01:32:38.349Z,44.75
2022-09-28T01:33:48.119Z,44.60
2022-09-28T01:34:59.848Z,44.51
2022-09-28T01:36:28.438Z,44.51
2022-09-28T01:37:44.677Z,44.79
2022-09-28T01:39:08.009Z,44.65
2022-09-28T01:40:12.160Z,44.38
2022-09-28T01:41:17.510Z,44.55
2022-09-28T01:42:27.337Z,44.80
2022-09-28T01:43:31.174Z,44.58
2022-09-28T01:44:39.863Z,44.65
2022-09-28T01:45:47.163Z,44.55
2022-09-28T01:46:50.550Z,44.66
2022-09-28T01:47:58.383Z,44.78
2022-09-28T01:49:08.157Z,44.51
2022-09-28T01:50:14.862Z,44.60
2022-09-28T01:51:22.562Z,44.59
2022-09-28T01:52:53.744Z,44.66
2022-09-28T01:54:01.182Z,44.59
2022-09-28T01:55:11.043Z,44.41
2022-09-28T01:56:29.712Z,44.53
2022-09-28T01:57:38.531Z,44.73
2022-09-28T01:58:53.181Z,44.86
2022-09-28T02:00:04.037Z,44.84
2022-09-28T02:01:16.286Z,44.60
2022-09-28T02:02:22.594Z,44.68
2022-09-28T02:03:32.003Z,44.58
2022-09-28T02:04:39.547Z,44.59
2022-09-28T02:05:45.590Z,44.79
2022-09-28T02:06:53.852Z,44.51
2022-09-28T02:08:28.857Z,44.70
2022-09-28T02:09:42.118Z,44.78
2022-09-28T02:10:56.859Z,44.51
2022-09-28T02:12:02.961Z,44.56
2022-09-28T02:13:12.350Z,44.53
2022-09-28T02:14:17.632Z,44.67
2022-09-28T02:15:37.413Z,44.75
2022-09-28T02:16:44.978Z,44.52
2022-09-28T02:17:46.991Z,44.46
2022-09-28T02:18:48.541Z,44.78
2022-09-28T02:19:50.189Z,44.71
2022-09-28T02:21:21.003Z,44.78
2022-09-28T02:22:31.996Z,44.70
2022-09-28T02:23:37.205Z,44.57
2022-09-28T02:24:43.009Z,44.44
2022-09-28T02:25:53.084Z,44.55
2022-09-28T02:26:59.444Z,44.74
2022-09-28T02:28:11.039Z,44.66
2022-09-28T02:29:13.026Z,44.51
2022-09-28T02:30:14.706Z,44.64
2022-09-28T02:31:16.397Z,44.81
2022-09-28T02:32:20.194Z,44.78
2022-09-28T02:33:31.745Z,44.69
2022-09-28T02:34:33.527Z,44.75
2022-09-28T02:35:35.409Z,44.64
2022-09-28T02:36:37.290Z,44.85
2022-09-28T02:37:40.056Z,44.58
2022-09-28T02:38:41.659Z,44.68
2022-09-28T02:39:43.233Z,44.61
2022-09-28T02:40:57.290Z,44.59
2022-09-28T02:42:13.504Z,44.83
2022-09-28T02:43:26.878Z,44.76
2022-09-28T02:44:40.599Z,44.57
2022-09-28T02:45:56.327Z,44.56
2022-09-28T02:46:57.957Z,44.80
2022-09-28T02:48:05.588Z,44.58
2022-09-28T02:49:28.092Z,44.68
2022-09-28T02:50:44.842Z,44.78
2022-09-28T02:51:55.100Z,44.64
2022-09-28T02:53:14.920Z,44.81
2022-09-28T02:55:00.959Z,44.70
2022-09-28T02:56:27.173Z,44.54
2022-09-28T02:57:50.857Z,44.59
2022-09-28T02:59:29.574Z,44.66
2022-09-28T03:00:36.944Z,44.75
2022-09-28T03:01:58.618Z,44.61
2022-09-28T03:03:19.142Z,44.90
2022-09-28T03:04:36.373Z,44.63
2022-09-28T03:06:01.265Z,44.54
2022-09-28T03:07:16.376Z,44.71
2022-09-28T03:08:27.841Z,44.56
2022-09-28T03:09:40.218Z,44.66
2022-09-28T03:10:49.812Z,44.52
2022-09-28T03:11:56.949Z,44.82
2022-09-28T03:12:59.414Z,44.75
2022-09-28T03:14:03.263Z,44.83
2022-09-28T03:15:24.094Z,44.92
2022-09-28T03:16:27.563Z,44.80
2022-09-28T03:17:29.262Z,44.64
2022-09-28T03:18:32.288Z,44.72
2022-09-28T03:19:34.895Z,44.60
2022-09-28T03:20:37.269Z,44.70
2022-09-28T03:21:39.047Z,44.60
2022-09-28T03:22:40.606Z,44.82
2022-09-28T03:23:42.556Z,44.70
2022-09-28T03:24:44.081Z,44.87
2022-09-28T03:25:45.650Z,44.51
2022-09-28T03:26:47.194Z,44.61
2022-09-28T03:27:48.700Z,44.52
2022-09-28T03:28:50.222Z,44.83
2022-09-28T03:29:51.759Z,44.85
2022-09-28T03:30:53.433Z,44.85
2022-09-28T03:31:55.108Z,44.49
2022-09-28T03:33:00.807Z,44.58
2022-09-28T03:34:02.452Z,44.38
2022-09-28T03:35:04.933Z,44.75
2022-09-28T03:36:08.692Z,44.59
2022-09-28T03:37:10.226Z,44.73
2022-09-28T03:38:11.757Z,44.68
2022-09-28T03:39:13.265Z,44.45
2022-09-28T03:40:15.024Z,44.68
2022-09-28T03:41:16.630Z,44.48
2022-09-28T03:42:18.133Z,44.42
2022-09-28T03:43:19.656Z,44.74
2022-09-28T03:44:21.187Z,44.54
2022-09-28T03:45:22.737Z,44.38
2022-09-28T03:46:24.389Z,44.75
2022-09-28T03:47:25.973Z,44.50
2022-09-28T03:48:33.206Z,44.72
2022-09-28T03:49:35.320Z,44.51
2022-09-28T03:50:36.865Z,44.34
2022-09-28T03:51:38.464Z,44.54
2022-09-28T03:52:40.146Z,44.76
2022-09-28T03:53:41.712Z,44.38
2022-09-28T03:54:48.297Z,44.43
2022-09-28T03:55:53.153Z,44.60
2022-09-28T03:56:54.926Z,44.60
2022-09-28T03:57:56.468Z,44.48
2022-09-28T03:58:57.972Z,44.36
2022-09-28T03:59:59.937Z,44.47
2022-09-28T04:01:07.786Z,44.73
2022-09-28T04:02:10.318Z,44.35
2022-09-28T04:03:11.887Z,44.60
2022-09-28T04:04:13.968Z,44.63
2022-09-28T04:05:15.566Z,44.56
2022-09-28T04:06:17.149Z,44.33
2022-09-28T04:07:18.699Z,44.59
2022-09-28T04:08:20.628Z,44.55
2022-09-28T04:09:22.154Z,44.62
2022-09-28T04:10:24.841Z,44.51
2022-09-28T04:11:26.605Z,44.83
2022-09-28T04:12:28.136Z,44.56
2022-09-28T04:13:30.436Z,44.51
2022-09-28T04:14:32.049Z,44.48
2022-09-28T04:15:33.550Z,44.50
2022-09-28T04:16:35.127Z,44.41
2022-09-28T04:17:40.080Z,44.68
2022-09-28T04:18:42.539Z,44.54
2022-09-28T04:19:44.079Z,44.49
2022-09-28T04:20:48.008Z,44.59
2022-09-28T04:21:52.894Z,44.58
2022-09-28T04:22:55.245Z,44.25
2022-09-28T04:23:58.112Z,44.23
2022-09-28T04:24:59.696Z,44.25
2022-09-28T04:26:01.883Z,44.27
2022-09-28T04:27:22.318Z,44.50
2022-09-28T04:28:42.875Z,44.50
2022-09-28T04:29:44.409Z,44.52
2022-09-28T04:30:47.502Z,44.61
2022-09-28T04:31:51.756Z,44.51
2022-09-28T04:32:53.304Z,44.38
2022-09-28T04:33:54.825Z,44.30
2022-09-28T04:34:56.369Z,44.47
2022-09-28T04:35:57.855Z,44.58
2022-09-28T04:36:59.399Z,44.59
2022-09-28T04:38:00.921Z,44.37
2022-09-28T04:39:02.505Z,44.70
2022-09-28T04:40:04.465Z,44.58
2022-09-28T04:41:06.147Z,44.45
2022-09-28T04:42:11.121Z,44.27
2022-09-28T04:43:12.638Z,44.23
2022-09-28T04:44:14.197Z,44.23
2022-09-28T04:45:15.856Z,44.56
2022-09-28T04:46:17.498Z,44.18
2022-09-28T04:47:19.074Z,44.29
2022-09-28T04:48:20.605Z,43.99
2022-09-28T04:49:22.361Z,43.81
2022-09-28T04:50:23.865Z,43.86
2022-09-28T04:51:25.591Z,43.90
2022-09-28T04:52:27.300Z,44.06
2022-09-28T04:53:29.992Z,44.18
2022-09-28T04:54:31.567Z,43.99
2022-09-28T04:55:33.219Z,44.22
2022-09-28T04:56:34.717Z,43.93
2022-09-28T04:57:36.285Z,43.79
2022-09-28T04:58:38.237Z,43.82
2022-09-28T04:59:39.843Z,43.77
2022-09-28T05:00:41.605Z,43.50
2022-09-28T05:01:43.175Z,43.48
2022-09-28T05:02:44.744Z,43.27
2022-09-28T05:03:46.311Z,43.10
2022-09-28T05:04:47.917Z,42.89
2022-09-28T05:05:49.779Z,43.16
2022-09-28T05:06:51.358Z,42.93
2022-09-28T05:07:52.917Z,42.92
2022-09-28T05:08:57.343Z,42.94
2022-09-28T05:09:58.923Z,42.99
2022-09-28T05:11:03.224Z,43.27
2022-09-28T05:12:04.797Z,43.31
2022-09-28T05:13:07.275Z,43.16
2022-09-28T05:14:10.682Z,43.41
2022-09-28T05:15:12.285Z,43.31
2022-09-28T05:16:16.200Z,43.40
2022-09-28T05:17:17.832Z,43.45
2022-09-28T05:18:19.501Z,43.60
2022-09-28T05:19:21.031Z,43.54
2022-09-28T05:20:22.568Z,43.76
2022-09-28T05:21:26.357Z,43.68
2022-09-28T05:22:27.938Z,43.28
2022-09-28T05:23:29.603Z,43.51
2022-09-28T05:24:31.560Z,43.20
2022-09-28T05:25:34.788Z,42.83
2022-09-28T05:26:36.321Z,42.50
2022-09-28T05:27:37.833Z,42.33
2022-09-28T05:28:39.412Z,42.26
2022-09-28T05:29:40.939Z,41.66
2022-09-28T05:30:42.483Z,41.75
2022-09-28T05:31:44.066Z,41.38
2022-09-28T05:32:45.632Z,41.44
2022-09-28T05:33:47.180Z,41.23
2022-09-28T05:34:48.757Z,41.37
2022-09-28T05:35:54.430Z,40.99
2022-09-28T05:36:57.661Z,41.08
2022-09-28T05:38:04.659Z,41.21
2022-09-28T05:39:06.847Z,41.11
2022-09-28T05:40:09.152Z,41.21
2022-09-28T05:41:10.733Z,41.23
2022-09-28T05:42:12.390Z,41.17
2022-09-28T05:43:13.949Z,41.24
2022-09-28T05:44:15.532Z,41.38
2022-09-28T05:45:17.180Z,41.41
2022-09-28T05:46:20.144Z,41.47
2022-09-28T05:47:22.185Z,41.71
2022-09-28T05:48:23.734Z,41.83
2022-09-28T05:49:25.256Z,41.75
2022-09-28T05:50:26.794Z,41.98
2022-09-28T05:51:28.292Z,42.05
2022-09-28T05:52:29.797Z,42.13
2022-09-28T05:53:31.316Z,42.22
2022-09-28T05:54:32.888Z,42.25
2022-09-28T05:55:36.161Z,42.48
2022-09-28T05:56:37.679Z,42.34
2022-09-28T05:57:39.260Z,42.51
2022-09-28T05:58:40.792Z,42.53
2022-09-28T05:59:42.323Z,42.49
2022-09-28T06:00:43.968Z,42.50
2022-09-28T06:01:45.660Z,42.43
2022-09-28T06:02:59.952Z,42.65
2022-09-28T06:04:01.578Z,42.38
2022-09-28T06:05:03.337Z,42.65
2022-09-28T06:06:04.951Z,42.37
2022-09-28T06:07:06.518Z,42.40
2022-09-28T06:08:10.551Z,42.57
2022-09-28T06:09:12.144Z,42.38
2022-09-28T06:10:13.777Z,42.54
2022-09-28T06:11:15.444Z,42.57
2022-09-28T06:12:17.072Z,42.71
2022-09-28T06:13:18.628Z,42.68
2022-09-28T06:14:20.141Z,42.60
2022-09-28T06:15:28.019Z,42.94
2022-09-28T06:16:29.729Z,42.72
2022-09-28T06:17:31.291Z,42.58
2022-09-28T06:18:32.824Z,42.94
2022-09-28T06:19:34.325Z,42.97
2022-09-28T06:20:38.035Z,42.98
2022-09-28T06:21:39.584Z,43.21
2022-09-28T06:22:41.116Z,43.10
2022-09-28T06:23:48.197Z,43.32
2022-09-28T06:24:50.617Z,43.30
2022-09-28T06:25:52.664Z,43.45
2022-09-28T06:26:54.238Z,43.35
2022-09-28T06:27:55.708Z,43.23
2022-09-28T06:28:57.381Z,43.50
2022-09-28T06:30:00.844Z,43.08
2022-09-28T06:31:02.438Z,43.32
2022-09-28T06:32:04.095Z,43.22
2022-09-28T06:33:07.881Z,43.36
2022-09-28T06:34:11.354Z,43.36
2022-09-28T06:35:16.104Z,43.26
2022-09-28T06:36:18.374Z,43.33
2022-09-28T06:37:19.897Z,43.44
2022-09-28T06:38:21.500Z,43.36
2022-09-28T06:39:23.073Z,43.47
2022-09-28T06:40:25.006Z,43.52
2022-09-28T06:41:26.605Z,43.50
2022-09-28T06:42:28.140Z,43.61
2022-09-28T06:43:34.138Z,43.53
2022-09-28T06:44:36.164Z,43.55
2022-09-28T06:45:38.826Z,43.33
2022-09-28T06:46:41.152Z,43.36
2022-09-28T06:47:42.654Z,43.49
2022-09-28T06:48:45.103Z,43.35
2022-09-28T06:49:47.770Z,43.24
2022-09-28T06:50:50.115Z,43.53
2022-09-28T06:51:52.347Z,43.51
2022-09-28T06:52:55.062Z,43.66
2022-09-28T06:53:56.925Z,43.42
2022-09-28T06:54:58.485Z,43.22
2022-09-28T06:56:02.514Z,43.49
2022-09-28T06:57:04.179Z,43.26
2022-09-28T06:58:08.044Z,43.58
2022-09-28T06:59:10.794Z,43.54
2022-09-28T07:00:13.135Z,43.75
2022-09-28T07:01:14.748Z,43.49
2022-09-28T07:02:16.698Z,43.40
2022-09-28T07:03:20.956Z,43.67
2022-09-28T07:04:22.533Z,43.77
2022-09-28T07:05:27.611Z,43.54
2022-09-28T07:06:31.005Z,43.54
2022-09-28T07:07:33.116Z,43.58
2022-09-28T07:08:34.641Z,43.41
2022-09-28T07:09:42.668Z,43.39
2022-09-28T07:10:48.685Z,43.38
2022-09-28T07:11:50.264Z,43.44
2022-09-28T07:12:52.057Z,43.54
2022-09-28T07:13:53.583Z,43.53
2022-09-28T07:14:57.332Z,43.60
2022-09-28T07:16:01.918Z,44.01
2022-09-28T07:17:13.205Z,44.62
2022-09-28T07:18:17.889Z,45.18
2022-09-28T07:19:19.490Z,45.59
2022-09-28T07:20:21.066Z,45.81
2022-09-28T07:21:29.833Z,46.00
2022-09-28T07:22:42.325Z,46.32
2022-09-28T07:23:52.838Z,46.31
2022-09-28T07:24:55.191Z,46.09
2022-09-28T07:25:58.263Z,46.08
2022-09-28T07:26:59.815Z,46.10
2022-09-28T07:28:02.734Z,46.10
2022-09-28T07:29:04.958Z,46.23
2022-09-28T07:30:07.247Z,46.47
2022-09-28T07:31:09.675Z,46.06
2022-09-28T07:32:11.244Z,46.26
2022-09-28T07:33:15.059Z,46.19
2022-09-28T07:34:18.585Z,46.14
2022-09-28T07:35:20.413Z,46.44
2022-09-28T07:36:22.789Z,46.21
2022-09-28T07:37:26.101Z,46.34
2022-09-28T07:38:27.807Z,46.20
2022-09-28T07:39:29.385Z,46.30
2022-09-28T07:40:50.860Z,46.25
2022-09-28T07:41:56.750Z,46.22
2022-09-28T07:43:07.141Z,46.34
2022-09-28T07:44:08.721Z,46.14
2022-09-28T07:45:10.439Z,46.50
2022-09-28T07:46:12.353Z,46.40
2022-09-28T07:47:14.102Z,46.43
2022-09-28T07:48:16.715Z,46.39
2022-09-28T07:49:19.346Z,46.40
2022-09-28T07:50:21.516Z,46.16
2022-09-28T07:51:23.065Z,46.27
2022-09-28T07:52:26.220Z,46.45
2022-09-28T07:53:28.501Z,46.44
2022-09-28T07:54:31.278Z,46.51
2022-09-28T07:55:32.790Z,46.41
2022-09-28T07:56:34.906Z,46.49
2022-09-28T07:57:36.476Z,46.42
2022-09-28T07:58:39.391Z,46.95
2022-09-28T07:59:40.889Z,46.37
2022-09-28T08:00:42.533Z,46.80
2022-09-28T08:01:44.192Z,46.50
2022-09-28T08:02:45.857Z,46.46
2022-09-28T08:03:48.131Z,46.64
2022-09-28T08:04:50.303Z,46.68
2022-09-28T08:05:51.919Z,46.61
2022-09-28T08:06:53.449Z,46.77
2022-09-28T08:07:57.758Z,46.68
2022-09-28T08:09:00.033Z,46.56
2022-09-28T08:10:01.582Z,46.61
2022-09-28T08:11:05.819Z,46.59
2022-09-28T08:12:07.850Z,46.71
2022-09-28T08:13:09.385Z,46.60
2022-09-28T08:14:11.063Z,46.81
2022-09-28T08:15:12.653Z,46.81
2022-09-28T08:16:14.304Z,46.74
2022-09-28T08:17:15.872Z,46.65
2022-09-28T08:18:18.257Z,46.60
2022-09-28T08:19:19.793Z,46.85
2022-09-28T08:20:40.172Z,46.75
2022-09-28T08:21:47.857Z,46.55
2022-09-28T08:22:49.421Z,46.65
2022-09-28T08:23:51.515Z,46.85
2022-09-28T08:24:53.225Z,46.59
2022-09-28T08:25:54.940Z,46.66
2022-09-28T08:26:57.196Z,46.67
2022-09-28T08:27:59.043Z,46.78
2022-09-28T08:29:00.527Z,46.90
2022-09-28T08:30:02.064Z,46.71
2022-09-28T08:31:03.710Z,46.68
2022-09-28T08:32:08.311Z,46.75
2022-09-28T08:33:09.844Z,46.74
2022-09-28T08:34:11.367Z,46.89
2022-09-28T08:35:13.309Z,46.93
2022-09-28T08:36:14.930Z,46.85
2022-09-28T08:37:16.490Z,46.74
2022-09-28T08:38:18.364Z,46.90
2022-09-28T08:39:19.904Z,46.65
2022-09-28T08:40:27.041Z,46.80
2022-09-28T08:41:51.087Z,46.85
2022-09-28T08:43:04.793Z,46.99
2022-09-28T08:44:16.451Z,46.88
2022-09-28T08:45:33.668Z,46.62
2022-09-28T08:46:45.627Z,46.91
2022-09-28T08:48:29.336Z,46.74
2022-09-28T08:49:37.210Z,46.78
2022-09-28T08:50:50.138Z,46.62
2022-09-28T08:51:56.112Z,46.81
2022-09-28T08:53:12.385Z,46.86
2022-09-28T08:54:16.969Z,46.84
2022-09-28T08:55:32.444Z,47.06
2022-09-28T08:56:53.910Z,47.07
2022-09-28T08:58:00.965Z,46.73
2022-09-28T08:59:05.554Z,46.78
2022-09-28T09:00:11.001Z,47.16
2022-09-28T09:01:18.949Z,46.86
2022-09-28T09:02:23.334Z,47.11
2022-09-28T09:03:34.210Z,47.29
2022-09-28T09:04:35.761Z,47.44
2022-09-28T09:06:10.343Z,47.43
2022-09-28T09:07:33.749Z,47.17
2022-09-28T09:08:57.644Z,47.03
2022-09-28T09:09:59.143Z,47.06
2022-09-28T09:11:48.844Z,47.08
2022-09-28T09:13:19.351Z,47.15
2022-09-28T09:14:34.379Z,46.96
2022-09-28T09:15:48.219Z,47.06
2022-09-28T09:17:14.395Z,46.97
2022-09-28T09:18:36.223Z,46.88
2022-09-28T09:20:16.455Z,47.03
2022-09-28T09:21:36.231Z,47.07
2022-09-28T09:23:01.524Z,46.84
2022-09-28T09:24:27.117Z,46.97
2022-09-28T09:25:38.367Z,46.95
2022-09-28T09:26:41.442Z,47.01
2022-09-28T09:27:49.022Z,47.00
2022-09-28T09:29:05.831Z,47.00
2022-09-28T09:30:19.751Z,47.13
2022-09-28T09:31:38.295Z,47.46
2022-09-28T09:33:04.788Z,47.90
2022-09-28T09:34:21.714Z,47.82
2022-09-28T09:35:37.477Z,47.69
2022-09-28T09:36:48.102Z,47.73
2022-09-28T09:38:09.384Z,47.81
2022-09-28T09:39:26.041Z,47.73
2022-09-28T09:40:47.141Z,47.75
2022-09-28T09:42:00.787Z,47.47
2022-09-28T09:43:40.097Z,47.57
2022-09-28T09:44:53.695Z,47.28
2022-09-28T09:46:14.586Z,47.36
2022-09-28T09:47:35.027Z,47.32
2022-09-28T09:48:44.792Z,47.29
2022-09-28T09:50:05.551Z,47.25
2022-09-28T09:51:28.113Z,47.18
2022-09-28T09:52:39.907Z,47.10
2022-09-28T09:53:53.191Z,47.07
2022-09-28T09:55:00.553Z,47.20
2022-09-28T09:56:14.762Z,46.92
2022-09-28T09:57:34.953Z,47.20
2022-09-28T09:58:41.106Z,47.17
2022-09-28T09:59:44.562Z,47.34
2022-09-28T10:00:50.093Z,47.66
2022-09-28T10:01:53.260Z,47.60
2022-09-28T10:02:57.572Z,47.48
2022-09-28T10:04:00.462Z,47.34
2022-09-28T10:05:07.578Z,47.31
2022-09-28T10:06:14.251Z,47.24
2022-09-28T10:07:24.702Z,47.25
2022-09-28T10:08:28.394Z,47.22
2022-09-28T10:09:46.529Z,47.14
2022-09-28T10:11:20.630Z,47.00
2022-09-28T10:12:23.531Z,47.03
2022-09-28T10:13:25.384Z,47.16
2022-09-28T10:14:27.284Z,47.08
2022-09-28T10:15:31.468Z,46.97
2022-09-28T10:16:33.383Z,46.87
2022-09-28T10:17:37.421Z,46.85
2022-09-28T10:18:39.075Z,46.80
2022-09-28T10:19:40.762Z,46.82
2022-09-28T10:20:45.043Z,46.79
2022-09-28T10:21:51.693Z,46.53
2022-09-28T10:22:56.747Z,46.74
2022-09-28T10:24:02.780Z,46.67
2022-09-28T10:25:06.012Z,46.34
2022-09-28T10:26:25.335Z,46.46
2022-09-28T10:27:31.854Z,46.43
2022-09-28T10:28:40.863Z,46.40
2022-09-28T10:30:14.720Z,46.47
2022-09-28T10:31:42.763Z,46.39
2022-09-28T10:32:46.578Z,46.34
2022-09-28T10:33:48.139Z,46.58
2022-09-28T10:34:51.337Z,46.41
2022-09-28T10:35:52.889Z,46.40
2022-09-28T10:36:55.999Z,46.45
2022-09-28T10:37:59.707Z,46.51
2022-09-28T10:39:01.354Z,46.34
2022-09-28T10:40:02.958Z,46.26
2022-09-28T10:41:14.401Z,46.50
2022-09-28T10:42:33.661Z,46.50
2022-09-28T10:43:50.657Z,46.36
2022-09-28T10:45:23.890Z,46.40
2022-09-28T10:46:25.747Z,46.31
2022-09-28T10:47:32.581Z,46.33
2022-09-28T10:48:58.480Z,46.10
2022-09-28T10:50:01.093Z,46.28
2022-09-28T10:51:08.656Z,46.21
2022-09-28T10:52:38.343Z,46.42
2022-09-28T10:53:40.265Z,46.11
2022-09-28T10:54:53.570Z,46.31
2022-09-28T10:56:02.694Z,46.36
2022-09-28T10:57:29.106Z,46.19
2022-09-28T10:58:42.160Z,45.85
2022-09-28T10:59:44.186Z,45.62
2022-09-28T11:00:45.761Z,45.62
2022-09-28T11:01:47.437Z,45.63
2022-09-28T11:02:49.097Z,45.38
2022-09-28T11:04:02.655Z,45.45
2022-09-28T11:05:07.061Z,45.26
2022-09-28T11:06:08.878Z,45.24
2022-09-28T11:07:18.485Z,45.17
2022-09-28T11:08:29.819Z,45.22
2022-09-28T11:09:35.167Z,45.04
2022-09-28T11:10:37.286Z,45.18
2022-09-28T11:11:42.872Z,45.01
2022-09-28T11:12:45.460Z,45.13
2022-09-28T11:14:03.675Z,45.08
2022-09-28T11:15:07.703Z,44.91
2022-09-28T11:16:20.976Z,44.76
2022-09-28T11:17:32.471Z,44.66
2022-09-28T11:18:34.665Z,44.60
2022-09-28T11:19:36.774Z,44.61
2022-09-28T11:20:41.358Z,44.48
2022-09-28T11:21:46.225Z,44.51
2022-09-28T11:22:51.744Z,44.44
2022-09-28T11:24:19.914Z,44.43
2022-09-28T11:25:27.233Z,44.32
2022-09-28T11:26:37.482Z,44.27
2022-09-28T11:27:39.147Z,44.22
2022-09-28T11:28:42.081Z,44.27
2022-09-28T11:29:51.072Z,44.22
2022-09-28T11:30:53.672Z,44.22
2022-09-28T11:32:00.976Z,44.16
2022-09-28T11:33:17.666Z,44.15
2022-09-28T11:34:57.599Z,44.13
2022-09-28T11:36:17.206Z,44.13
2022-09-28T11:37:27.994Z,44.17
2022-09-28T11:38:36.177Z,44.28
2022-09-28T11:39:49.785Z,44.16
2022-09-28T11:41:02.591Z,44.06
2022-09-28T11:42:14.214Z,43.82
2022-09-28T11:43:46.405Z,44.27
2022-09-28T11:45:04.308Z,44.92
2022-09-28T11:46:32.394Z,45.24
2022-09-28T11:47:50.582Z,45.52
2022-09-28T11:48:56.621Z,45.42
2022-09-28T11:50:14.593Z,45.58
2022-09-28T11:51:31.608Z,45.77
2022-09-28T11:53:20.698Z,45.96
2022-09-28T11:54:35.572Z,45.75
2022-09-28T11:56:08.581Z,45.92
2022-09-28T11:57:21.271Z,45.84
2022-09-28T11:58:40.164Z,46.12
2022-09-28T12:00:04.285Z,46.10
2022-09-28T12:01:25.658Z,46.13
2022-09-28T12:02:36.393Z,46.09
2022-09-28T12:03:46.456Z,45.95
2022-09-28T12:04:54.034Z,45.88
2022-09-28T12:06:00.964Z,46.11
2022-09-28T12:07:23.403Z,45.96
2022-09-28T12:08:30.063Z,45.98
2022-09-28T12:09:41.178Z,45.88
2022-09-28T12:10:48.852Z,45.79
2022-09-28T12:11:58.796Z,45.58
2022-09-28T12:13:14.553Z,45.71
2022-09-28T12:14:26.312Z,45.41
2022-09-28T12:16:06.890Z,45.19
2022-09-28T12:17:23.684Z,45.17
2022-09-28T12:19:03.681Z,44.94
2022-09-28T12:20:21.659Z,44.93
2022-09-28T12:21:42.738Z,45.13
2022-09-28T12:23:01.931Z,44.81
2022-09-28T12:24:15.008Z,45.00
2022-09-28T12:25:21.224Z,44.73
2022-09-28T12:26:39.113Z,44.82
2022-09-28T12:27:55.712Z,44.79
2022-09-28T12:29:07.057Z,44.70
2022-09-28T12:30:15.862Z,44.69
2022-09-28T12:31:24.053Z,44.54
2022-09-28T12:32:28.553Z,44.50
2022-09-28T12:33:30.091Z,44.32
2022-09-28T12:34:31.971Z,44.56
2022-09-28T12:36:03.711Z,44.48
2022-09-28T12:37:12.972Z,44.45
2022-09-28T12:38:29.158Z,44.42
2022-09-28T12:39:57.449Z,44.22
2022-09-28T12:41:17.560Z,44.17
2022-09-28T12:42:21.729Z,44.04
2022-09-28T12:43:44.622Z,44.04
2022-09-28T12:45:08.847Z,44.11
2022-09-28T12:46:25.578Z,43.93
2022-09-28T12:48:01.555Z,44.00
2022-09-28T12:50:27.307Z,43.94
2022-09-28T12:51:03.925Z,43.91
2022-09-28T12:52:32.868Z,43.88
2022-09-28T12:53:58.660Z,44.04
2022-09-28T12:55:19.188Z,43.93
2022-09-28T12:56:37.447Z,43.92
2022-09-28T12:58:00.310Z,43.96
2022-09-28T12:59:04.906Z,43.77
2022-09-28T13:00:14.026Z,43.60
2022-09-28T13:01:18.581Z,43.65
2022-09-28T13:02:49.530Z,43.78
2022-09-28T13:03:59.118Z,43.53
2022-09-28T13:05:16.004Z,43.79
2022-09-28T13:06:32.718Z,43.59
2022-09-28T13:07:56.339Z,43.92
2022-09-28T13:09:17.227Z,43.76
2022-09-28T13:10:34.225Z,43.74
2022-09-28T13:12:23.386Z,43.91
2022-09-28T13:13:39.477Z,43.74
2022-09-28T13:14:51.271Z,43.99
2022-09-28T13:16:30.939Z,44.11
2022-09-28T13:18:29.953Z,44.08
2022-09-28T13:19:54.856Z,44.19
2022-09-28T13:21:20.720Z,44.23
2022-09-28T13:22:35.791Z,44.08
2022-09-28T13:23:47.010Z,44.11
2022-09-28T13:24:50.465Z,43.92
2022-09-28T13:26:20.092Z,44.29
2022-09-28T13:27:40.574Z,44.26
2022-09-28T13:28:45.364Z,44.19
2022-09-28T13:29:49.864Z,44.08
2022-09-28T13:30:53.851Z,44.20
2022-09-28T13:31:59.731Z,44.11
2022-09-28T13:33:04.632Z,44.14
2022-09-28T13:34:13.173Z,44.06
2022-09-28T13:35:21.765Z,44.00
2022-09-28T13:36:26.587Z,44.03
2022-09-28T13:37:29.130Z,44.14
2022-09-28T13:38:45.314Z,44.00
2022-09-28T13:39:52.279Z,44.17
2022-09-28T13:41:06.155Z,44.15
2022-09-28T13:42:09.598Z,43.89
2022-09-28T13:43:27.204Z,44.30
2022-09-28T13:44:55.888Z,44.47
2022-09-28T13:46:07.420Z,44.15
2022-09-28T13:47:42.185Z,43.95
2022-09-28T13:49:04.741Z,44.37
2022-09-28T13:50:26.982Z,44.15
2022-09-28T13:51:38.141Z,44.12
2022-09-28T13:52:55.273Z,44.07
2022-09-28T13:54:41.556Z,44.17
2022-09-28T13:55:56.787Z,43.93
2022-09-28T13:57:19.756Z,44.07
2022-09-28T13:58:41.405Z,43.88
2022-09-28T13:59:58.755Z,43.95
2022-09-28T14:01:10.633Z,43.99
2022-09-28T14:02:35.273Z,43.83
2022-09-28T14:04:15.663Z,44.11
2022-09-28T14:05:23.411Z,43.87
2022-09-28T14:06:28.034Z,43.69
2022-09-28T14:07:35.613Z,44.09
2022-09-28T14:08:40.117Z,44.18
2022-09-28T14:10:18.834Z,44.28
2022-09-28T14:11:34.362Z,44.32
2022-09-28T14:12:35.882Z,44.37
2022-09-28T14:13:43.530Z,44.20
2022-09-28T14:14:47.225Z,44.11
2022-09-28T14:15:48.872Z,44.16
2022-09-28T14:17:00.124Z,44.27
2022-09-28T14:18:31.557Z,44.09
2022-09-28T14:19:34.347Z,44.06
2022-09-28T14:20:36.873Z,44.04
2022-09-28T14:21:56.443Z,44.15
2022-09-28T14:23:15.904Z,44.08
2022-09-28T14:24:27.385Z,44.11
2022-09-28T14:25:33.663Z,43.99
2022-09-28T14:27:12.390Z,43.95
2022-09-28T14:28:32.587Z,44.15
2022-09-28T14:29:37.276Z,43.76
2022-09-28T14:30:41.862Z,43.88
2022-09-28T14:31:44.588Z,43.85
2022-09-28T14:32:53.372Z,43.96
2022-09-28T14:33:58.100Z,44.03
2022-09-28T14:35:06.690Z,43.95
2022-09-28T14:37:01.600Z,43.96
2022-09-28T14:38:44.392Z,44.14
2022-09-28T14:40:05.727Z,43.78
2022-09-28T14:41:09.566Z,43.82
2022-09-28T14:42:18.863Z,44.09
2022-09-28T14:43:38.957Z,43.95